Time;durP1;ratioP1;P1;durP2;ratioP2;P2;SDS_P1;SDS_P2;PMS_P1;PMS_P2;Temp;Humidity;BMP_temperature;BMP_pressure;BME280_temperature;BME280_humidity;BME280_pressure;Samples;Min_cycle;Max_cycle;Signal;HPM_P1;HPM_P2
2023/03/05 00:01:25;;;;;;;12.70;1.80;;;;;;;;;;5011437;28;20024;-65
2023/03/05 00:03:51;;;;;;;8.95;1.75;;;;;;;;;;5010356;28;20080;-64
2023/03/05 00:06:17;;;;;;;13.20;1.50;;;;;;;;;;5011405;28;20026;-64
2023/03/05 00:08:42;;;;;;;9.38;1.35;;;;;;;;;;5011288;28;20061;-63
2023/03/05 00:11:09;;;;;;;15.75;2.40;;;;;;;;;;5014146;28;20021;-63
2023/03/05 00:13:35;;;;;;;9.40;1.23;;;;;;;;;;5014595;28;20025;-62
2023/03/05 00:16:03;;;;;;;9.35;1.40;;;;;;;;;;5011192;28;20018;-64
2023/03/05 00:18:29;;;;;;;10.85;1.30;;;;;;;;;;5010283;28;20017;-63
2023/03/05 00:20:54;;;;;;;8.93;1.38;;;;;;;;;;5009573;28;20445;-64
2023/03/05 00:23:19;;;;;;;11.30;1.83;;;;;;;;;;5010288;28;20018;-63
2023/03/05 00:25:45;;;;;;;9.65;1.38;;;;;;;;;;5011023;28;20014;-64
2023/03/05 00:28:10;;;;;;;8.40;1.70;;;;;;;;;;5011202;28;20068;-64
2023/03/05 00:30:36;;;;;;;9.82;1.40;;;;;;;;;;5011496;28;20473;-63
2023/03/05 00:33:01;;;;;;;12.43;2.17;;;;;;;;;;5010586;28;20544;-64
2023/03/05 00:35:26;;;;;;;6.77;1.23;;;;;;;;;;5009465;28;20021;-64
2023/03/05 00:37:52;;;;;;;7.57;1.50;;;;;;;;;;5011500;28;20026;-65
2023/03/05 00:40:17;;;;;;;8.80;1.40;;;;;;;;;;5011011;28;20025;-64
2023/03/05 00:42:42;;;;;;;8.00;1.30;;;;;;;;;;5011355;28;20477;-66
2023/03/05 00:45:08;;;;;;;8.35;1.33;;;;;;;;;;5010228;28;20049;-62
2023/03/05 00:47:33;;;;;;;9.18;1.63;;;;;;;;;;5017545;28;20060;-63
2023/03/05 00:49:59;;;;;;;9.15;1.63;;;;;;;;;;5013230;28;20025;-64
2023/03/05 00:52:24;;;;;;;7.83;1.47;;;;;;;;;;5019181;28;20037;-63
2023/03/05 00:54:49;;;;;;;12.47;1.60;;;;;;;;;;5017791;28;20518;-64
2023/03/05 00:57:14;;;;;;;7.53;1.50;;;;;;;;;;5021335;28;20017;-64
2023/03/05 00:59:39;;;;;;;10.77;1.85;;;;;;;;;;5012022;28;20049;-65
2023/03/05 01:02:05;;;;;;;12.07;1.50;;;;;;;;;;5018350;28;20083;-65
2023/03/05 01:04:30;;;;;;;9.07;2.00;;;;;;;;;;5013187;28;20463;-65
2023/03/05 01:06:55;;;;;;;8.13;1.70;;;;;;;;;;5011449;28;20048;-64
2023/03/05 01:09:20;;;;;;;10.07;1.58;;;;;;;;;;5017734;28;20026;-64
2023/03/05 01:11:46;;;;;;;13.13;1.50;;;;;;;;;;5009949;28;20089;-64
2023/03/05 01:14:11;;;;;;;9.63;1.80;;;;;;;;;;5013086;28;20449;-63
2023/03/05 01:16:36;;;;;;;16.07;2.27;;;;;;;;;;5013905;28;20109;-64
2023/03/05 01:19:01;;;;;;;12.07;2.37;;;;;;;;;;5009503;28;20428;-64
2023/03/05 01:21:27;;;;;;;9.77;1.50;;;;;;;;;;5009748;28;20395;-65
2023/03/05 01:23:52;;;;;;;10.80;1.60;;;;;;;;;;5013667;28;20114;-64
2023/03/05 01:26:17;;;;;;;12.88;1.50;;;;;;;;;;5013128;28;20029;-64
2023/03/05 01:28:42;;;;;;;8.73;1.23;;;;;;;;;;5017221;28;20026;-64
2023/03/05 01:31:09;;;;;;;8.60;1.60;;;;;;;;;;5014230;28;20045;-63
2023/03/05 01:33:34;;;;;;;7.03;1.15;;;;;;;;;;5012799;28;20477;-64
2023/03/05 01:35:59;;;;;;;10.33;1.27;;;;;;;;;;5014136;28;20049;-64
2023/03/05 01:38:24;;;;;;;8.93;1.73;;;;;;;;;;5016617;28;20477;-64
2023/03/05 01:40:50;;;;;;;8.32;1.15;;;;;;;;;;5014658;28;20444;-63
2023/03/05 01:43:21;;;;;;;5.97;1.00;;;;;;;;;;5015735;28;20473;-64
2023/03/05 01:46:05;;;;;;;7.25;1.05;;;;;;;;;;5019046;28;20448;-64
2023/03/05 01:48:30;;;;;;;6.10;1.25;;;;;;;;;;5013760;28;20029;-65
2023/03/05 01:50:55;;;;;;;11.37;1.20;;;;;;;;;;5017228;28;20104;-65
2023/03/05 01:53:20;;;;;;;7.83;1.20;;;;;;;;;;5021141;28;20028;-64
2023/03/05 01:55:45;;;;;;;11.02;1.08;;;;;;;;;;5012785;28;20493;-65
2023/03/05 01:58:12;;;;;;;12.23;1.77;;;;;;;;;;5011438;28;20053;-65
2023/03/05 02:00:39;;;;;;;7.78;1.13;;;;;;;;;;5012319;28;20026;-64
2023/03/05 02:03:07;;;;;;;8.65;0.88;;;;;;;;;;5012726;28;20026;-64
2023/03/05 02:05:34;;;;;;;8.45;1.10;;;;;;;;;;5012738;28;20101;-63
2023/03/05 02:08:00;;;;;;;7.47;1.00;;;;;;;;;;5013549;28;20441;-64
2023/03/05 02:10:31;;;;;;;8.73;1.15;;;;;;;;;;5014509;28;20021;-64
2023/03/05 02:12:59;;;;;;;10.88;1.35;;;;;;;;;;5013205;28;20025;-64
2023/03/05 02:15:24;;;;;;;7.03;1.05;;;;;;;;;;5015425;28;20026;-65
2023/03/05 02:17:49;;;;;;;7.40;0.90;;;;;;;;;;5020690;28;20022;-65
2023/03/05 02:20:16;;;;;;;8.80;1.10;;;;;;;;;;5015907;28;20024;-63
2023/03/05 02:22:42;;;;;;;11.23;1.30;;;;;;;;;;5010759;28;20021;-65
2023/03/05 02:25:14;;;;;;;7.30;1.13;;;;;;;;;;5017814;28;20024;-65
2023/03/05 02:27:39;;;;;;;;;;;;;;;;;;5024845;28;20140;-64
2023/03/05 02:30:05;;;;;;;4.45;1.00;;;;;;;;;;5015393;28;20023;-64
2023/03/05 02:32:30;;;;;;;10.77;1.40;;;;;;;;;;5022282;28;20025;-64
2023/03/05 02:34:55;;;;;;;8.47;1.00;;;;;;;;;;5013703;28;20034;-63
2023/03/05 02:37:21;;;;;;;7.30;1.03;;;;;;;;;;5011187;28;20033;-65
2023/03/05 02:39:46;;;;;;;6.97;1.03;;;;;;;;;;5012753;28;20114;-64
2023/03/05 02:42:11;;;;;;;7.75;1.10;;;;;;;;;;5012646;28;20478;-65
2023/03/05 02:44:36;;;;;;;6.78;1.17;;;;;;;;;;5015865;28;20021;-65
2023/03/05 02:47:01;;;;;;;6.97;0.80;;;;;;;;;;5010525;28;20029;-64
2023/03/05 02:49:27;;;;;;;8.80;1.00;;;;;;;;;;5011155;28;20105;-64
2023/03/05 02:51:52;;;;;;;5.82;0.82;;;;;;;;;;5012064;28;20449;-63
2023/03/05 02:54:17;;;;;;;7.30;1.00;;;;;;;;;;5011725;28;20018;-64
2023/03/05 02:56:42;;;;;;;8.17;1.30;;;;;;;;;;5015157;28;20459;-65
2023/03/05 02:59:08;;;;;;;9.65;1.00;;;;;;;;;;5010769;28;20061;-64
2023/03/05 03:01:33;;;;;;;7.17;1.03;;;;;;;;;;5010836;28;20022;-64
2023/03/05 03:03:58;;;;;;;6.17;0.80;;;;;;;;;;5013040;28;20075;-64
2023/03/05 03:06:23;;;;;;;6.40;0.87;;;;;;;;;;5011414;28;20080;-64
2023/03/05 03:08:49;;;;;;;10.05;1.10;;;;;;;;;;5012409;28;20033;-64
2023/03/05 03:11:14;;;;;;;7.20;0.90;;;;;;;;;;5013449;28;20021;-65
2023/03/05 03:13:39;;;;;;;4.47;0.90;;;;;;;;;;5011884;28;20105;-64
2023/03/05 03:16:06;;;;;;;7.15;1.10;;;;;;;;;;5011528;28;20041;-65
2023/03/05 03:18:31;;;;;;;10.77;1.00;;;;;;;;;;5011136;28;20116;-64
2023/03/05 03:20:56;;;;;;;6.00;1.10;;;;;;;;;;5009975;28;20604;-65
2023/03/05 03:23:21;;;;;;;8.95;1.05;;;;;;;;;;5010047;28;20084;-65
2023/03/05 03:25:47;;;;;;;8.35;1.10;;;;;;;;;;5011045;28;20025;-65
2023/03/05 03:28:12;;;;;;;4.60;1.08;;;;;;;;;;5015310;28;20029;-65
2023/03/05 03:30:37;;;;;;;6.93;1.00;;;;;;;;;;5012927;28;20024;-64
2023/03/05 03:33:02;;;;;;;6.30;1.00;;;;;;;;;;5015794;28;20022;-65
2023/03/05 03:35:27;;;;;;;6.03;0.90;;;;;;;;;;5017247;28;20014;-64
2023/03/05 03:37:52;;;;;;;6.53;0.93;;;;;;;;;;5012039;28;20049;-65
2023/03/05 03:40:18;;;;;;;8.35;0.95;;;;;;;;;;5015536;28;20875;-66
2023/03/05 03:42:43;;;;;;;5.53;1.10;;;;;;;;;;5013300;28;20025;-65
2023/03/05 03:45:08;;;;;;;5.87;0.90;;;;;;;;;;5014639;28;20025;-65
2023/03/05 03:47:33;;;;;;;11.88;1.20;;;;;;;;;;5011992;28;20035;-65
2023/03/05 03:49:58;;;;;;;5.18;0.80;;;;;;;;;;5011229;28;20076;-65
2023/03/05 03:52:25;;;;;;;3.40;0.80;;;;;;;;;;5014018;28;20030;-65
2023/03/05 03:54:51;;;;;;;3.97;1.00;;;;;;;;;;5011427;28;20030;-65
2023/03/05 03:57:17;;;;;;;8.63;0.90;;;;;;;;;;5012361;28;20099;-65
2023/03/05 03:59:44;;;;;;;6.40;0.90;;;;;;;;;;5011747;28;20485;-65
2023/03/05 04:02:09;;;;;;;7.55;0.98;;;;;;;;;;5010080;28;20466;-64
2023/03/05 04:04:34;;;;;;;5.20;0.90;;;;;;;;;;5010742;28;20108;-63
2023/03/05 04:06:59;;;;;;;5.95;0.90;;;;;;;;;;5011246;28;20909;-62
2023/03/05 04:09:24;;;;;;;7.60;0.77;;;;;;;;;;5019396;28;20029;-65
2023/03/05 04:11:50;;;;;;;5.63;0.77;;;;;;;;;;5011429;28;20563;-64
2023/03/05 04:14:15;;;;;;;4.20;1.00;;;;;;;;;;5015818;28;20424;-64
2023/03/05 04:16:40;;;;;;;6.57;0.80;;;;;;;;;;5013610;28;20439;-64
2023/03/05 04:19:05;;;;;;;5.67;0.80;;;;;;;;;;5018852;28;20013;-64
2023/03/05 04:21:30;;;;;;;5.35;0.68;;;;;;;;;;5024490;28;20101;-64
2023/03/05 04:23:55;;;;;;;5.90;1.23;;;;;;;;;;5018905;28;20057;-64
2023/03/05 04:26:21;;;;;;;6.70;1.00;;;;;;;;;;5016219;28;20047;-64
2023/03/05 04:28:47;;;;;;;3.63;0.80;;;;;;;;;;5022334;28;20032;-64
2023/03/05 04:31:12;;;;;;;6.47;1.00;;;;;;;;;;5016966;28;20013;-64
2023/03/05 04:33:37;;;;;;;6.53;0.70;;;;;;;;;;5014902;28;20595;-64
2023/03/05 04:36:02;;;;;;;7.28;0.63;;;;;;;;;;5017585;28;20097;-62
2023/03/05 04:38:27;;;;;;;4.83;0.70;;;;;;;;;;5020471;28;20032;-62
2023/03/05 04:40:52;;;;;;;5.50;0.75;;;;;;;;;;5006192;28;20457;-63
2023/03/05 04:43:18;;;;;;;4.65;0.63;;;;;;;;;;5010291;28;20040;-62
2023/03/05 04:45:43;;;;;;;4.25;0.80;;;;;;;;;;5010302;28;20117;-63
2023/03/05 04:48:09;;;;;;;7.33;0.80;;;;;;;;;;5017465;28;20030;-63
2023/03/05 04:50:34;;;;;;;4.32;0.70;;;;;;;;;;5018816;28;20018;-66
2023/03/05 04:53:00;;;;;;;5.57;0.75;;;;;;;;;;5013476;28;20033;-64
2023/03/05 04:55:25;;;;;;;5.53;0.63;;;;;;;;;;5020917;28;20033;-63
2023/03/05 04:57:51;;;;;;;8.73;0.77;;;;;;;;;;5014252;28;20478;-63
2023/03/05 05:00:16;;;;;;;3.63;0.73;;;;;;;;;;5022942;28;20033;-64
2023/03/05 05:02:46;;;;;;;7.30;1.20;;;;;;;;;;5021334;28;20025;-65
2023/03/05 05:05:13;;;;;;;5.15;0.90;;;;;;;;;;5025582;28;20026;-65
2023/03/05 05:07:38;;;;;;;4.80;0.80;;;;;;;;;;5007875;28;20033;-64
2023/03/05 05:10:04;;;;;;;5.10;1.10;;;;;;;;;;5016808;28;20029;-63
2023/03/05 05:12:29;;;;;;;10.50;1.10;;;;;;;;;;5018483;28;20034;-63
2023/03/05 05:14:55;;;;;;;5.32;0.82;;;;;;;;;;5008120;28;20055;-65
2023/03/05 05:17:20;;;;;;;6.28;1.20;;;;;;;;;;5014616;28;20399;-65
2023/03/05 05:19:45;;;;;;;5.72;1.10;;;;;;;;;;5026434;28;20021;-65
2023/03/05 05:22:10;;;;;;;6.23;0.97;;;;;;;;;;5020231;28;20541;-65
2023/03/05 05:24:36;;;;;;;5.53;1.35;;;;;;;;;;5005752;28;20018;-64
2023/03/05 05:27:01;;;;;;;4.47;1.13;;;;;;;;;;5010317;28;20034;-65
2023/03/05 05:29:26;;;;;;;6.45;1.02;;;;;;;;;;5009077;28;20029;-65
2023/03/05 05:31:52;;;;;;;5.07;1.30;;;;;;;;;;5009892;28;20033;-64
2023/03/05 05:34:18;;;;;;;7.97;1.63;;;;;;;;;;5009855;28;20056;-64
2023/03/05 05:36:43;;;;;;;6.73;1.40;;;;;;;;;;5015028;28;20022;-63
2023/03/05 05:39:08;;;;;;;3.23;1.00;;;;;;;;;;5010493;28;20399;-64
2023/03/05 05:41:33;;;;;;;6.18;1.33;;;;;;;;;;5012181;28;20029;-63
2023/03/05 05:43:58;;;;;;;4.80;1.10;;;;;;;;;;5006912;28;20142;-64
2023/03/05 05:46:23;;;;;;;3.67;1.13;;;;;;;;;;5008282;28;20025;-63
2023/03/05 05:48:49;;;;;;;7.50;1.40;;;;;;;;;;5009554;28;20500;-63
2023/03/05 05:51:15;;;;;;;6.43;1.20;;;;;;;;;;5009627;28;20025;-64
2023/03/05 05:53:41;;;;;;;6.70;1.20;;;;;;;;;;5010809;28;20018;-64
2023/03/05 05:56:08;;;;;;;6.38;1.10;;;;;;;;;;5010484;28;20033;-63
2023/03/05 05:58:33;;;;;;;5.78;1.38;;;;;;;;;;5010126;28;20022;-64
2023/03/05 06:00:59;;;;;;;3.60;1.02;;;;;;;;;;5010841;28;20047;-65
2023/03/05 06:03:24;;;;;;;3.93;0.87;;;;;;;;;;5008761;28;20362;-64
2023/03/05 06:05:50;;;;;;;7.23;1.17;;;;;;;;;;5009464;28;20401;-64
2023/03/05 06:08:16;;;;;;;5.75;1.00;;;;;;;;;;5009808;28;20022;-64
2023/03/05 06:10:41;;;;;;;6.70;1.20;;;;;;;;;;5010133;28;20010;-65
2023/03/05 06:13:06;;;;;;;6.53;1.42;;;;;;;;;;5011551;28;20021;-65
2023/03/05 06:15:31;;;;;;;5.97;1.20;;;;;;;;;;5013229;28;20021;-65
2023/03/05 06:17:57;;;;;;;3.92;1.27;;;;;;;;;;5013206;28;20100;-65
2023/03/05 06:20:22;;;;;;;5.15;1.30;;;;;;;;;;5012342;28;20021;-64
2023/03/05 06:22:48;;;;;;;4.20;1.00;;;;;;;;;;5012301;28;20421;-64
2023/03/05 06:25:13;;;;;;;4.87;1.20;;;;;;;;;;5012837;28;20018;-64
2023/03/05 06:27:38;;;;;;;5.00;1.10;;;;;;;;;;5021784;28;20033;-64
2023/03/05 06:30:04;;;;;;;3.50;1.00;;;;;;;;;;5009106;28;20115;-63
2023/03/05 06:32:29;;;;;;;3.20;1.00;;;;;;;;;;5016017;28;20026;-64
2023/03/05 06:34:54;;;;;;;5.05;1.00;;;;;;;;;;5014040;28;20029;-63
2023/03/05 06:37:19;;;;;;;4.13;0.93;;;;;;;;;;5013376;28;20093;-63
2023/03/05 06:39:45;;;;;;;4.97;1.17;;;;;;;;;;5011907;28;20029;-64
2023/03/05 06:42:10;;;;;;;5.83;0.90;;;;;;;;;;5013729;28;20400;-65
2023/03/05 06:44:39;;;;;;;5.90;1.03;;;;;;;;;;5011486;28;20216;-64
2023/03/05 06:47:05;;;;;;;5.10;0.80;;;;;;;;;;5011920;28;20457;-65
2023/03/05 06:49:30;;;;;;;3.60;0.75;;;;;;;;;;5013032;28;20388;-64
2023/03/05 06:51:55;;;;;;;7.13;1.10;;;;;;;;;;5014046;28;20491;-65
2023/03/05 06:54:21;;;;;;;3.13;0.80;;;;;;;;;;5014273;28;20164;-65
2023/03/05 06:56:46;;;;;;;4.47;0.80;;;;;;;;;;5017186;28;20041;-63
2023/03/05 06:59:12;;;;;;;4.70;0.80;;;;;;;;;;5015601;28;20022;-63
2023/03/05 07:01:37;;;;;;;4.10;1.00;;;;;;;;;;5010762;28;20029;-65
2023/03/05 07:04:03;;;;;;;4.40;0.80;;;;;;;;;;5016744;28;20022;-65
2023/03/05 07:06:31;;;;;;;4.30;0.70;;;;;;;;;;5016794;28;20021;-65
2023/03/05 07:08:57;;;;;;;2.67;0.57;;;;;;;;;;5019431;28;20033;-64
2023/03/05 07:11:22;;;;;;;2.22;0.50;;;;;;;;;;5008754;28;20018;-66
2023/03/05 07:13:48;;;;;;;4.63;0.67;;;;;;;;;;5018705;28;20546;-64
2023/03/05 07:16:14;;;;;;;3.15;0.70;;;;;;;;;;5020678;28;20109;-64
2023/03/05 07:18:39;;;;;;;2.33;0.70;;;;;;;;;;5032308;28;20036;-63
2023/03/05 07:21:05;;;;;;;2.93;0.53;;;;;;;;;;5023198;28;20025;-64
2023/03/05 07:23:31;;;;;;;2.20;0.50;;;;;;;;;;5017136;28;20022;-65
2023/03/05 07:25:56;;;;;;;4.20;0.50;;;;;;;;;;5015517;28;20049;-65
2023/03/05 07:28:21;;;;;;;5.90;0.50;;;;;;;;;;5025677;28;20468;-65
2023/03/05 07:30:57;;;;;;;4.23;0.70;;;;;;;;;;5017165;28;20136;-64
2023/03/05 07:33:22;;;;;;;4.05;0.60;;;;;;;;;;5017514;28;20048;-65
2023/03/05 07:35:47;;;;;;;1.88;0.60;;;;;;;;;;5015871;28;20105;-63
2023/03/05 07:38:13;;;;;;;3.15;0.60;;;;;;;;;;5007334;28;20028;-64
2023/03/05 07:40:38;;;;;;;2.67;0.70;;;;;;;;;;5002749;28;20026;-64
2023/03/05 07:43:03;;;;;;;2.58;0.60;;;;;;;;;;5012648;28;20405;-65
2023/03/05 07:45:28;;;;;;;2.83;0.55;;;;;;;;;;5011709;28;20022;-65
2023/03/05 07:47:54;;;;;;;3.63;0.93;;;;;;;;;;5015236;28;20033;-65
2023/03/05 07:50:20;;;;;;;3.28;0.60;;;;;;;;;;5024398;28;20097;-64
2023/03/05 07:52:45;;;;;;;3.92;0.70;;;;;;;;;;5020306;28;20649;-63
2023/03/05 07:55:10;;;;;;;2.40;0.53;;;;;;;;;;5005972;28;20025;-63
2023/03/05 07:57:37;;;;;;;2.27;0.60;;;;;;;;;;5011766;28;20022;-66
2023/03/05 08:00:03;;;;;;;2.58;0.65;;;;;;;;;;5021851;28;20025;-65
2023/03/05 08:02:28;;;;;;;3.00;0.50;;;;;;;;;;5028501;28;20018;-65
2023/03/05 08:04:54;;;;;;;5.00;0.73;;;;;;;;;;5009299;28;20033;-65
2023/03/05 08:07:19;;;;;;;3.42;0.68;;;;;;;;;;5009791;28;20025;-66
2023/03/05 08:09:44;;;;;;;3.03;0.80;;;;;;;;;;5006258;28;20030;-65
2023/03/05 08:12:09;;;;;;;3.05;0.60;;;;;;;;;;5005384;28;20025;-64
2023/03/05 08:14:35;;;;;;;4.97;0.80;;;;;;;;;;5008979;28;20028;-63
2023/03/05 08:17:00;;;;;;;2.70;0.50;;;;;;;;;;5006169;28;20034;-63
2023/03/05 08:19:25;;;;;;;3.97;1.27;;;;;;;;;;5010878;28;20022;-64
2023/03/05 08:21:50;;;;;;;5.40;0.83;;;;;;;;;;5008559;28;20520;-65
2023/03/05 08:24:15;;;;;;;3.80;0.70;;;;;;;;;;5009260;28;20018;-64
2023/03/05 08:26:41;;;;;;;3.95;0.60;;;;;;;;;;5007669;28;20025;-64
2023/03/05 08:29:07;;;;;;;3.65;0.80;;;;;;;;;;5007782;28;20046;-65
2023/03/05 08:31:33;;;;;;;3.47;0.90;;;;;;;;;;5005209;28;20085;-65
2023/03/05 08:33:59;;;;;;;3.28;0.82;;;;;;;;;;5008265;28;20560;-63
2023/03/05 08:36:24;;;;;;;4.65;0.90;;;;;;;;;;5018837;28;20054;-64
2023/03/05 08:38:50;;;;;;;3.23;0.90;;;;;;;;;;5012539;28;20052;-64
2023/03/05 08:41:15;;;;;;;5.43;1.08;;;;;;;;;;5007396;28;20026;-64
2023/03/05 08:43:40;;;;;;;4.35;1.20;;;;;;;;;;5009822;28;20105;-64
2023/03/05 08:46:06;;;;;;;4.77;1.00;;;;;;;;;;5015761;28;20076;-65
2023/03/05 08:48:31;;;;;;;3.17;0.95;;;;;;;;;;5012175;28;20042;-67
2023/03/05 08:50:57;;;;;;;3.55;1.00;;;;;;;;;;5004392;28;20022;-64
2023/03/05 08:53:23;;;;;;;5.32;1.20;;;;;;;;;;5011567;28;20065;-64
2023/03/05 08:55:55;;;;;;;4.43;1.38;;;;;;;;;;5011693;28;20129;-62
2023/03/05 08:58:20;;;;;;;3.40;1.10;;;;;;;;;;5013840;28;20049;-64
2023/03/05 09:00:45;;;;;;;3.13;0.90;;;;;;;;;;5011122;28;20366;-62
2023/03/05 09:03:10;;;;;;;6.60;1.40;;;;;;;;;;5012798;28;20022;-63
2023/03/05 09:05:35;;;;;;;4.53;1.33;;;;;;;;;;5013759;28;20366;-62
2023/03/05 09:08:01;;;;;;;4.27;1.30;;;;;;;;;;5011704;28;20060;-64
2023/03/05 09:10:26;;;;;;;4.90;1.60;;;;;;;;;;5014668;28;20026;-63
2023/03/05 09:12:51;;;;;;;6.27;1.47;;;;;;;;;;5016780;28;20087;-64
2023/03/05 09:15:16;;;;;;;5.88;1.48;;;;;;;;;;5009574;28;20508;-64
2023/03/05 09:17:41;;;;;;;6.13;1.43;;;;;;;;;;5020829;28;20017;-63
2023/03/05 09:20:10;;;;;;;4.60;1.30;;;;;;;;;;5020336;28;20499;-64
2023/03/05 09:22:35;;;;;;;5.93;1.60;;;;;;;;;;5011876;28;20489;-64
2023/03/05 09:25:00;;;;;;;6.15;1.48;;;;;;;;;;5009395;28;20149;-63
2023/03/05 09:27:25;;;;;;;5.20;1.47;;;;;;;;;;5013281;28;20378;-65
2023/03/05 09:29:51;;;;;;;6.45;1.70;;;;;;;;;;5010380;28;20072;-63
2023/03/05 09:32:17;;;;;;;4.00;1.40;;;;;;;;;;5007989;28;20021;-64
2023/03/05 09:34:42;;;;;;;4.68;1.30;;;;;;;;;;5009041;28;20108;-66
2023/03/05 09:37:07;;;;;;;5.72;1.67;;;;;;;;;;5009961;28;20026;-63
2023/03/05 09:39:32;;;;;;;5.40;1.67;;;;;;;;;;5025454;28;20021;-64
2023/03/05 09:41:57;;;;;;;6.28;1.80;;;;;;;;;;5009895;28;20041;-65
2023/03/05 09:44:40;;;;;;;5.50;1.70;;;;;;;;;;5009797;28;20481;-64
2023/03/05 09:47:23;;;;;;;5.32;1.75;;;;;;;;;;5010434;28;20025;-64
2023/03/05 09:49:52;;;;;;;6.47;1.80;;;;;;;;;;5012551;28;20400;-65
2023/03/05 09:52:36;;;;;;;5.80;1.70;;;;;;;;;;5013427;28;20017;-65
2023/03/05 09:55:02;;;;;;;6.68;1.83;;;;;;;;;;5014230;28;20022;-64
2023/03/05 09:57:31;;;;;;;7.63;1.90;;;;;;;;;;5013952;28;20075;-65
2023/03/05 10:00:04;;;;;;;6.88;2.20;;;;;;;;;;5010247;28;20046;-64
2023/03/05 10:02:32;;;;;;;7.30;2.00;;;;;;;;;;5015084;28;20665;-63
2023/03/05 10:05:14;;;;;;;5.28;2.05;;;;;;;;;;5013092;28;20029;-63
2023/03/05 10:07:42;;;;;;;5.45;1.58;;;;;;;;;;5013552;28;20095;-64
2023/03/05 10:10:09;;;;;;;6.82;1.73;;;;;;;;;;5013592;28;20033;-63
2023/03/05 10:12:42;;;;;;;5.20;1.80;;;;;;;;;;5014850;28;20152;-65
2023/03/05 10:15:10;;;;;;;5.65;1.73;;;;;;;;;;5011558;28;20620;-65
2023/03/05 10:17:54;;;;;;;6.43;1.88;;;;;;;;;;5013041;28;20014;-65
2023/03/05 10:20:28;;;;;;;6.93;1.90;;;;;;;;;;5013555;28;20530;-64
2023/03/05 10:23:03;;;;;;;5.45;1.80;;;;;;;;;;5014469;28;20153;-64
2023/03/05 10:25:46;;;;;;;6.47;1.83;;;;;;;;;;5007342;28;20025;-65
2023/03/05 10:28:16;;;;;;;5.88;2.05;;;;;;;;;;5012848;28;20481;-64
2023/03/05 10:30:56;;;;;;;4.55;1.60;;;;;;;;;;5012115;28;20022;-63
2023/03/05 10:33:29;;;;;;;6.47;1.95;;;;;;;;;;5014121;28;20025;-63
2023/03/05 10:36:06;;;;;;;5.70;1.90;;;;;;;;;;5013830;28;20022;-64
2023/03/05 10:38:50;;;;;;;4.68;1.60;;;;;;;;;;5010587;28;20538;-64
2023/03/05 10:41:22;;;;;;;7.40;1.75;;;;;;;;;;5005744;28;20020;-65
2023/03/05 10:43:53;;;;;;;5.72;1.77;;;;;;;;;;5012730;28;20050;-64
2023/03/05 10:46:20;;;;;;;5.70;1.65;;;;;;;;;;5016789;28;20030;-65
2023/03/05 10:48:45;;;;;;;;;;;;;;;;;;5010610;28;20029;-64
2023/03/05 10:51:19;;;;;;;4.53;1.52;;;;;;;;;;5013185;28;19912;-63
2023/03/05 10:53:51;;;;;;;5.57;1.45;;;;;;;;;;5011295;28;20029;-64
2023/03/05 10:56:18;;;;;;;4.85;1.23;;;;;;;;;;5005234;28;20022;-64
2023/03/05 10:58:43;;;;;;;4.47;1.10;;;;;;;;;;5013563;28;20113;-64
2023/03/05 11:01:08;;;;;;;4.27;1.10;;;;;;;;;;5013516;28;20052;-64
2023/03/05 11:03:54;;;;;;;3.65;1.08;;;;;;;;;;5013393;28;20029;-64
2023/03/05 11:06:38;;;;;;;5.53;1.92;;;;;;;;;;5008336;28;20052;-64
2023/03/05 11:09:15;;;;;;;3.13;1.00;;;;;;;;;;5008533;28;20450;-65
2023/03/05 11:11:40;;;;;;;4.22;1.45;;;;;;;;;;5012173;28;20110;-63
2023/03/05 11:14:20;;;;;;;6.70;1.80;;;;;;;;;;5011923;28;20426;-64
2023/03/05 11:16:47;;;;;;;7.57;1.70;;;;;;;;;;5015078;28;20029;-64
2023/03/05 11:19:12;;;;;;;4.78;1.60;;;;;;;;;;5010706;28;20022;-64
2023/03/05 11:21:38;;;;;;;4.72;1.55;;;;;;;;;;5011997;28;20029;-64
2023/03/05 11:24:17;;;;;;;5.47;1.90;;;;;;;;;;5011340;28;20084;-65
2023/03/05 11:26:50;;;;;;;6.75;1.95;;;;;;;;;;5010718;28;20083;-64
2023/03/05 11:29:29;;;;;;;4.43;1.52;;;;;;;;;;5010252;28;20030;-65
2023/03/05 11:31:54;;;;;;;5.93;1.50;;;;;;;;;;5010609;28;20121;-63
2023/03/05 11:34:24;;;;;;;5.03;2.30;;;;;;;;;;5011750;28;20108;-64
2023/03/05 11:36:52;;;;;;;6.63;1.80;;;;;;;;;;5012202;28;20026;-64
2023/03/05 11:39:19;;;;;;;6.28;1.60;;;;;;;;;;5011292;28;20025;-64
2023/03/05 11:41:48;;;;;;;4.97;1.70;;;;;;;;;;5011730;28;20392;-64
2023/03/05 11:44:15;;;;;;;4.70;1.88;;;;;;;;;;5012528;28;20342;-63
2023/03/05 11:46:42;;;;;;;6.07;1.80;;;;;;;;;;5010441;28;20018;-64
2023/03/05 11:49:11;;;;;;;6.95;1.98;;;;;;;;;;5011782;28;20033;-64
2023/03/05 11:51:42;;;;;;;6.15;2.13;;;;;;;;;;5012233;28;20021;-62
2023/03/05 11:54:11;;;;;;;5.15;2.20;;;;;;;;;;5012813;28;20598;-65
2023/03/05 11:56:38;;;;;;;5.95;2.10;;;;;;;;;;5009724;28;20030;-65
2023/03/05 11:59:11;;;;;;;4.88;2.25;;;;;;;;;;5018995;28;20017;-63
2023/03/05 12:01:41;;;;;;;6.18;2.33;;;;;;;;;;5015955;28;20382;-63
2023/03/05 12:04:07;;;;;;;6.55;2.63;;;;;;;;;;5020975;28;20079;-62
2023/03/05 12:06:39;;;;;;;5.55;2.35;;;;;;;;;;5025683;28;20013;-64
2023/03/05 12:09:24;;;;;;;5.78;2.42;;;;;;;;;;5013459;28;20025;-63
2023/03/05 12:11:52;;;;;;;8.35;2.80;;;;;;;;;;5026031;28;20052;-63
2023/03/05 12:14:20;;;;;;;7.50;3.00;;;;;;;;;;5022805;28;20445;-64
2023/03/05 12:16:55;;;;;;;7.43;2.97;;;;;;;;;;5011667;28;20026;-63
2023/03/05 12:19:33;;;;;;;6.28;2.42;;;;;;;;;;5013756;28;20018;-64
2023/03/05 12:21:58;;;;;;;7.43;2.65;;;;;;;;;;5015511;28;20032;-64
2023/03/05 12:24:23;;;;;;;6.63;2.70;;;;;;;;;;5013549;28;20022;-64
2023/03/05 12:26:51;;;;;;;7.27;2.83;;;;;;;;;;5016005;28;20045;-64
2023/03/05 12:29:27;;;;;;;10.18;4.00;;;;;;;;;;5018248;28;20474;-63
2023/03/05 12:31:52;;;;;;;7.90;2.90;;;;;;;;;;5016903;28;20052;-64
2023/03/05 12:34:36;;;;;;;9.07;3.30;;;;;;;;;;5015274;28;20087;-63
2023/03/05 12:37:02;;;;;;;7.95;3.47;;;;;;;;;;5013166;28;20022;-64
2023/03/05 12:39:43;;;;;;;10.40;3.58;;;;;;;;;;5019665;28;20079;-63
2023/03/05 12:42:26;;;;;;;10.55;3.80;;;;;;;;;;5012553;28;20030;-65
2023/03/05 12:45:10;;;;;;;9.45;3.03;;;;;;;;;;5007154;28;20022;-63
2023/03/05 12:47:36;;;;;;;9.77;3.05;;;;;;;;;;5006349;28;20699;-63
2023/03/05 12:50:02;;;;;;;7.05;3.08;;;;;;;;;;5011175;28;20490;-64
2023/03/05 12:52:29;;;;;;;7.05;3.17;;;;;;;;;;5005001;28;20037;-63
2023/03/05 12:55:01;;;;;;;8.27;2.88;;;;;;;;;;5009974;28;20022;-63
2023/03/05 12:57:28;;;;;;;7.85;2.75;;;;;;;;;;5004485;28;20093;-63
2023/03/05 12:59:59;;;;;;;6.05;2.50;;;;;;;;;;5012594;28;20320;-63
2023/03/05 13:02:33;;;;;;;6.45;2.33;;;;;;;;;;5009980;28;20025;-63
2023/03/05 13:05:01;;;;;;;8.30;2.55;;;;;;;;;;5009623;28;20030;-62
2023/03/05 13:07:26;;;;;;;7.10;2.42;;;;;;;;;;5007520;28;20022;-63
2023/03/05 13:09:53;;;;;;;6.80;2.30;;;;;;;;;;5007323;28;20480;-65
2023/03/05 13:12:18;;;;;;;6.60;2.25;;;;;;;;;;5009614;28;20030;-62
2023/03/05 13:14:45;;;;;;;6.23;2.70;;;;;;;;;;5009495;28;20389;-63
2023/03/05 13:17:23;;;;;;;6.43;2.50;;;;;;;;;;5008426;28;20381;-62
2023/03/05 13:19:48;;;;;;;7.93;2.40;;;;;;;;;;5010765;28;20374;-63
2023/03/05 13:22:13;;;;;;;5.90;2.53;;;;;;;;;;5012150;28;20077;-63
2023/03/05 13:24:38;;;;;;;6.27;2.20;;;;;;;;;;5013348;28;20065;-63
2023/03/05 13:27:17;;;;;;;7.90;2.20;;;;;;;;;;5012199;28;20070;-62
2023/03/05 13:29:49;;;;;;;6.68;2.42;;;;;;;;;;5014472;28;20558;-64
2023/03/05 13:32:28;;;;;;;6.82;2.38;;;;;;;;;;5015895;28;20116;-63
2023/03/05 13:34:55;;;;;;;6.25;2.42;;;;;;;;;;5024478;28;20071;-64
2023/03/05 13:37:22;;;;;;;6.47;2.15;;;;;;;;;;5012604;28;20116;-64
2023/03/05 13:39:47;;;;;;;7.25;2.15;;;;;;;;;;5019857;28;20029;-63
2023/03/05 13:42:16;;;;;;;7.68;2.08;;;;;;;;;;5014731;28;20014;-63
2023/03/05 13:44:42;;;;;;;5.03;2.00;;;;;;;;;;5017609;28;20489;-63
2023/03/05 13:47:17;;;;;;;6.20;2.07;;;;;;;;;;5014228;28;20246;-63
2023/03/05 13:49:43;;;;;;;4.80;1.90;;;;;;;;;;5018178;28;20033;-63
2023/03/05 13:52:08;;;;;;;5.22;1.88;;;;;;;;;;5030506;28;20026;-63
2023/03/05 13:54:34;;;;;;;8.40;2.25;;;;;;;;;;5013675;28;20030;-63
2023/03/05 13:56:59;;;;;;;7.20;1.80;;;;;;;;;;5018746;28;20030;-63
2023/03/05 13:59:27;;;;;;;5.82;1.80;;;;;;;;;;5014221;28;20073;-63
2023/03/05 14:01:52;;;;;;;4.93;1.75;;;;;;;;;;5019734;28;20037;-64
2023/03/05 14:04:19;;;;;;;5.07;1.85;;;;;;;;;;5010803;28;20037;-62
2023/03/05 14:06:50;;;;;;;6.80;2.00;;;;;;;;;;5020267;28;20033;-63
2023/03/05 14:09:23;;;;;;;6.00;2.00;;;;;;;;;;5006629;28;20504;-63
2023/03/05 14:12:11;;;;;;;6.13;1.50;;;;;;;;;;5014780;28;20471;-63
2023/03/05 14:14:36;;;;;;;7.05;1.83;;;;;;;;;;5009042;28;20145;-64
2023/03/05 14:17:21;;;;;;;5.50;1.60;;;;;;;;;;5010191;28;20113;-63
2023/03/05 14:19:46;;;;;;;5.07;1.60;;;;;;;;;;5008771;28;20045;-63
2023/03/05 14:22:27;;;;;;;6.25;1.85;;;;;;;;;;5010753;28;20452;-63
2023/03/05 14:24:52;;;;;;;5.40;1.77;;;;;;;;;;5007439;28;20029;-62
2023/03/05 14:27:19;;;;;;;6.53;2.35;;;;;;;;;;5004315;28;20037;-64
2023/03/05 14:29:45;;;;;;;6.00;1.88;;;;;;;;;;5014840;28;20505;-64
2023/03/05 14:32:29;;;;;;;4.38;1.40;;;;;;;;;;5009883;28;20055;-65
2023/03/05 14:34:56;;;;;;;4.13;1.10;;;;;;;;;;5012075;28;20026;-63
2023/03/05 14:37:23;;;;;;;3.88;1.25;;;;;;;;;;5010193;28;20026;-63
2023/03/05 14:39:53;;;;;;;3.58;1.27;;;;;;;;;;5013304;28;20034;-65
2023/03/05 14:42:35;;;;;;;4.43;1.20;;;;;;;;;;5021326;28;20036;-64
2023/03/05 14:45:09;;;;;;;4.45;1.52;;;;;;;;;;5015980;28;20101;-64